Homewood, Illinois
Current Conditions -  °F | °C
As of 10:15 AM on Thursday 30 Oct 2014 (Local Time) from KIGQ Reporting Station
Clear Clear  
Wind Chill: 41°   Ceiling: Unl
Heat Index: 43°   Visibility: 10mi
Dew Point: 36°   Wind: 5mph
Humidity: 75%   Direction: 210°SSW
Pressure: 30.15"   Gusts: NA
Location:  41.56°N, 87.66°W
Report Text: KIGQ 301515Z AUTO 21004KT 10SM CLR 06/02 A3015 RMK AO2 T00630022
Loading
Personal Weather Stations






























Interactive Weather Map New forecast layout! Learn more

10-Day Weather Forecast

Advertisements
Track Severe Weather on mobile